Clinton, WA

05:29 PDT le 25 avril 2015 (GMT -0700)
Brighton Beach Randall Point | | Change Station
CLOSE
Current Station
Stations météorologiques personnelles
Location: Clinton, WA
Altitude: 16 ft
Stations météo à proximité

Alt. 16 ft 47.98 °N, 122.35 °W | Updated 13 minutes ago

Couvert
Couvert
43.5 ° F
Paraît 40 ° F
N
5.3
Vent Variable Vent de ESE

Aujourd'hui
Haut(e) -- | Bas -- ° F
--% Risque de précip.
Hier
Haut(e) -- | Bas -- ° F
Precip. -- pouce
6:02 AM 8:14 PM
Lune montante, 45% visible
Pression 29.92 pouce
Visibilité 10.0 Miles terrestres
Nuages Couvert 5000 ft
Refroidissement éolien 40 ° F
Point de rosée 42 ° F
Humidité 96%
Précipitations 0.02 pouce
Profondeur de la couche neigeuse Non disponible.
UV 0 sur 12
Pollen 8.70 sur 12
Qualité de l'air Non disponible.
Flu Activity Regional
METAR KPAE 251153Z AUTO VRB03KT 10SM OVC050 05/03 A2991 RMK AO2 RAB08E18 SLP130 P0000 60007 70016 T00500033 10067 20050 51007

More Conditions Fewer Conditions

Pression 29.92 pouce
Visibilité 10.0 Miles terrestres
Nuages Couvert 5000 ft
Refroidissement éolien 40 ° F
Point de rosée 42 ° F
Humidité 96%
Précipitations 0.02 pouce
Profondeur de la couche neigeuse Non disponible.
UV 0 sur 12
Pollen 8.70 sur 12
Qualité de l'air Non disponible.
Flu Activity Regional
METAR KPAE 251153Z AUTO VRB03KT 10SM OVC050 05/03 A2991 RMK AO2 RAB08E18 SLP130 P0000 60007 70016 T00500033 10067 20050 51007

More Conditions Fewer Conditions

10-Day Weather Forecast

Almanac

Astronomie

Apr. 25, 2015 Lever Coucher
Temps réel
Crépuscule civil
Crépuscule nautique
Crépuscule astronomique
Lune
Durée de lumière visible
Longueur du jour
Tomorrow will be .
, % of the Moon is Illuminated

Extrêmes aujourd'hui

State Highs State Lows

Community

WunderPhotos

Upload Photos

1,816,645 Photos téléchargées !

WunderBlogs® & News

Nearby

Qualité de l'air

  Qualité de l'air Indice de la qualité de l'air Polluant
Not available.

Épaisseur de neige

Station Depth Altitude

Activité sismique

Ville Distance Mag. Time & Date
Minimum magnitude displayed is 2.5.

Températures des eaux côtières

Lieu Température

Stations

Stations météo à proximité

Emplacement de la station Température Refroidissement éolien Point de rosée Humidité Vent Precip. Alt. Mise à jour Type